sensor_id;sensor_type;location;lat;lon;timestamp;pressure;altitude;pressure_sealevel;temperature;humidity
27712;BME280;2377;51.734;8.950;2023-02-11T00:01:29;99386.41;;;5.48;96.83
27712;BME280;2377;51.734;8.950;2023-02-11T00:03:58;99387.69;;;5.52;96.39
27712;BME280;2377;51.734;8.950;2023-02-11T00:06:29;99387.84;;;5.50;96.98
27712;BME280;2377;51.734;8.950;2023-02-11T00:08:57;99382.06;;;5.58;96.34
27712;BME280;2377;51.734;8.950;2023-02-11T00:11:27;99376.75;;;5.51;97.29
27712;BME280;2377;51.734;8.950;2023-02-11T00:13:56;99379.41;;;5.50;97.16
27712;BME280;2377;51.734;8.950;2023-02-11T00:16:24;99386.19;;;5.59;96.87
27712;BME280;2377;51.734;8.950;2023-02-11T00:18:52;99388.59;;;5.61;96.94
27712;BME280;2377;51.734;8.950;2023-02-11T00:21:24;99385.69;;;5.56;96.44
27712;BME280;2377;51.734;8.950;2023-02-11T00:23:52;99379.53;;;5.58;96.94
27712;BME280;2377;51.734;8.950;2023-02-11T00:26:22;99382.34;;;5.55;96.97
27712;BME280;2377;51.734;8.950;2023-02-11T00:28:51;99384.50;;;5.50;97.54
27712;BME280;2377;51.734;8.950;2023-02-11T00:31:23;99376.63;;;5.53;97.21
27712;BME280;2377;51.734;8.950;2023-02-11T00:33:51;99379.41;;;5.60;97.32
27712;BME280;2377;51.734;8.950;2023-02-11T00:36:21;99384.31;;;5.61;97.22
27712;BME280;2377;51.734;8.950;2023-02-11T00:38:50;99381.78;;;5.61;97.14
27712;BME280;2377;51.734;8.950;2023-02-11T00:41:18;99379.13;;;5.63;97.09
27712;BME280;2377;51.734;8.950;2023-02-11T00:43:45;99382.31;;;5.65;97.17
27712;BME280;2377;51.734;8.950;2023-02-11T00:46:14;99374.03;;;5.63;97.29
27712;BME280;2377;51.734;8.950;2023-02-11T00:48:41;99362.94;;;5.64;97.34
27712;BME280;2377;51.734;8.950;2023-02-11T00:51:08;99360.16;;;5.57;97.79
27712;BME280;2377;51.734;8.950;2023-02-11T00:53:36;99366.31;;;5.55;98.33
27712;BME280;2377;51.734;8.950;2023-02-11T00:56:04;99369.50;;;5.57;98.85
27712;BME280;2377;51.734;8.950;2023-02-11T00:58:31;99387.16;;;5.58;99.52
27712;BME280;2377;51.734;8.950;2023-02-11T01:00:58;99391.84;;;5.53;99.56
27712;BME280;2377;51.734;8.950;2023-02-11T01:03:27;99382.91;;;5.49;99.43
27712;BME280;2377;51.734;8.950;2023-02-11T01:05:54;99389.31;;;5.53;99.89
27712;BME280;2377;51.734;8.950;2023-02-11T01:08:21;99390.38;;;5.50;100.00
27712;BME280;2377;51.734;8.950;2023-02-11T01:10:55;99394.13;;;5.46;99.74
27712;BME280;2377;51.734;8.950;2023-02-11T01:13:22;99387.03;;;5.50;100.00
27712;BME280;2377;51.734;8.950;2023-02-11T01:15:50;99377.16;;;5.47;100.00
27712;BME280;2377;51.734;8.950;2023-02-11T01:18:17;99373.78;;;5.56;100.00
27712;BME280;2377;51.734;8.950;2023-02-11T01:20:45;99365.81;;;5.51;100.00
27712;BME280;2377;51.734;8.950;2023-02-11T01:23:12;99367.13;;;5.55;100.00
27712;BME280;2377;51.734;8.950;2023-02-11T01:25:39;99374.41;;;5.40;100.00
27712;BME280;2377;51.734;8.950;2023-02-11T01:28:09;99374.34;;;5.50;100.00
27712;BME280;2377;51.734;8.950;2023-02-11T01:30:39;99379.72;;;5.47;100.00
27712;BME280;2377;51.734;8.950;2023-02-11T01:33:06;99390.50;;;5.49;100.00
27712;BME280;2377;51.734;8.950;2023-02-11T01:35:33;99393.34;;;5.46;100.00
27712;BME280;2377;51.734;8.950;2023-02-11T01:38:01;99379.03;;;5.45;100.00
27712;BME280;2377;51.734;8.950;2023-02-11T01:40:28;99379.47;;;5.40;100.00
27712;BME280;2377;51.734;8.950;2023-02-11T01:42:55;99392.31;;;5.39;100.00
27712;BME280;2377;51.734;8.950;2023-02-11T01:45:55;99384.53;;;5.40;100.00
27712;BME280;2377;51.734;8.950;2023-02-11T01:48:28;99365.91;;;5.32;100.00
27712;BME280;2377;51.734;8.950;2023-02-11T01:51:04;99363.22;;;5.33;100.00
27712;BME280;2377;51.734;8.950;2023-02-11T01:53:36;99351.06;;;5.37;100.00
27712;BME280;2377;51.734;8.950;2023-02-11T01:56:24;99353.88;;;5.34;100.00
27712;BME280;2377;51.734;8.950;2023-02-11T01:59:17;99335.50;;;5.32;100.00
27712;BME280;2377;51.734;8.950;2023-02-11T02:01:56;99328.31;;;5.27;100.00
27712;BME280;2377;51.734;8.950;2023-02-11T02:04:29;99331.72;;;5.36;100.00
27712;BME280;2377;51.734;8.950;2023-02-11T02:07:05;99339.59;;;5.33;100.00
27712;BME280;2377;51.734;8.950;2023-02-11T02:09:40;99334.81;;;5.29;100.00
27712;BME280;2377;51.734;8.950;2023-02-11T02:12:08;99337.34;;;5.29;100.00
27712;BME280;2377;51.734;8.950;2023-02-11T02:14:38;99339.38;;;5.26;100.00
27712;BME280;2377;51.734;8.950;2023-02-11T02:17:06;99321.63;;;5.26;100.00
27712;BME280;2377;51.734;8.950;2023-02-11T02:20:08;99310.81;;;5.24;100.00
27712;BME280;2377;51.734;8.950;2023-02-11T02:26:12;99333.13;;;5.20;100.00
27712;BME280;2377;51.734;8.950;2023-02-11T02:29:22;99337.53;;;5.18;100.00
27712;BME280;2377;51.734;8.950;2023-02-11T02:32:38;99329.63;;;5.21;100.00
27712;BME280;2377;51.734;8.950;2023-02-11T02:35:27;99337.53;;;5.18;100.00
27712;BME280;2377;51.734;8.950;2023-02-11T02:38:03;99325.53;;;5.20;100.00
27712;BME280;2377;51.734;8.950;2023-02-11T02:40:35;99328.88;;;5.11;100.00
27712;BME280;2377;51.734;8.950;2023-02-11T02:43:07;99324.97;;;5.17;100.00
27712;BME280;2377;51.734;8.950;2023-02-11T02:45:36;99323.66;;;5.22;100.00
27712;BME280;2377;51.734;8.950;2023-02-11T02:48:05;99312.31;;;5.17;100.00
27712;BME280;2377;51.734;8.950;2023-02-11T02:50:35;99309.53;;;5.20;100.00
27712;BME280;2377;51.734;8.950;2023-02-11T02:53:19;99306.75;;;5.13;100.00
27712;BME280;2377;51.734;8.950;2023-02-11T02:55:59;99319.50;;;5.21;100.00
27712;BME280;2377;51.734;8.950;2023-02-11T02:59:11;99324.31;;;5.15;100.00
27712;BME280;2377;51.734;8.950;2023-02-11T03:01:56;99305.41;;;5.09;100.00
27712;BME280;2377;51.734;8.950;2023-02-11T03:04:37;99309.00;;;5.16;100.00
27712;BME280;2377;51.734;8.950;2023-02-11T03:07:17;99321.00;;;5.14;100.00
27712;BME280;2377;51.734;8.950;2023-02-11T03:09:54;99317.25;;;5.18;100.00
27712;BME280;2377;51.734;8.950;2023-02-11T03:12:29;99303.53;;;5.11;100.00
27712;BME280;2377;51.734;8.950;2023-02-11T03:15:00;99308.19;;;5.16;100.00
27712;BME280;2377;51.734;8.950;2023-02-11T03:17:31;99304.34;;;5.12;100.00
27712;BME280;2377;51.734;8.950;2023-02-11T03:20:02;99300.22;;;5.01;100.00
27712;BME280;2377;51.734;8.950;2023-02-11T03:22:36;99303.13;;;5.16;100.00
27712;BME280;2377;51.734;8.950;2023-02-11T03:25:05;99307.81;;;5.11;100.00
27712;BME280;2377;51.734;8.950;2023-02-11T03:27:40;99307.25;;;5.17;100.00
27712;BME280;2377;51.734;8.950;2023-02-11T03:30:15;99291.53;;;5.13;100.00
27712;BME280;2377;51.734;8.950;2023-02-11T03:32:50;99285.44;;;5.06;100.00
27712;BME280;2377;51.734;8.950;2023-02-11T03:35:22;99290.22;;;5.09;100.00
27712;BME280;2377;51.734;8.950;2023-02-11T03:37:54;99292.88;;;5.07;100.00
27712;BME280;2377;51.734;8.950;2023-02-11T03:40:26;99286.09;;;5.08;100.00
27712;BME280;2377;51.734;8.950;2023-02-11T03:42:59;99293.25;;;5.13;100.00
27712;BME280;2377;51.734;8.950;2023-02-11T03:45:28;99291.53;;;5.13;100.00
27712;BME280;2377;51.734;8.950;2023-02-11T03:48:01;99281.03;;;5.08;100.00
27712;BME280;2377;51.734;8.950;2023-02-11T03:50:32;99263.91;;;5.10;100.00
27712;BME280;2377;51.734;8.950;2023-02-11T03:53:02;99268.34;;;5.08;100.00
27712;BME280;2377;51.734;8.950;2023-02-11T03:55:34;99271.81;;;5.07;100.00
27712;BME280;2377;51.734;8.950;2023-02-11T03:58:03;99263.00;;;5.11;100.00
27712;BME280;2377;51.734;8.950;2023-02-11T04:00:32;99269.81;;;5.11;100.00
27712;BME280;2377;51.734;8.950;2023-02-11T04:03:00;99265.16;;;5.06;100.00
27712;BME280;2377;51.734;8.950;2023-02-11T04:05:27;99276.38;;;5.03;100.00
27712;BME280;2377;51.734;8.950;2023-02-11T04:07:55;99275.84;;;5.00;100.00
27712;BME280;2377;51.734;8.950;2023-02-11T04:10:22;99273.56;;;5.06;100.00
27712;BME280;2377;51.734;8.950;2023-02-11T04:12:49;99273.13;;;5.11;100.00
27712;BME280;2377;51.734;8.950;2023-02-11T04:15:17;99274.06;;;5.10;100.00
27712;BME280;2377;51.734;8.950;2023-02-11T04:17:44;99280.56;;;5.13;100.00
27712;BME280;2377;51.734;8.950;2023-02-11T04:20:11;99270.34;;;5.04;100.00
27712;BME280;2377;51.734;8.950;2023-02-11T04:22:39;99265.16;;;5.06;100.00
27712;BME280;2377;51.734;8.950;2023-02-11T04:25:08;99261.25;;;5.12;100.00
27712;BME280;2377;51.734;8.950;2023-02-11T04:27:36;99265.94;;;5.06;100.00
27712;BME280;2377;51.734;8.950;2023-02-11T04:30:05;99265.16;;;5.06;100.00
27712;BME280;2377;51.734;8.950;2023-02-11T04:32:32;99271.94;;;5.05;100.00
27712;BME280;2377;51.734;8.950;2023-02-11T04:34:59;99266.88;;;5.05;100.00
27712;BME280;2377;51.734;8.950;2023-02-11T04:37:27;99255.28;;;5.03;100.00
27712;BME280;2377;51.734;8.950;2023-02-11T04:39:54;99266.75;;;5.07;100.00
27712;BME280;2377;51.734;8.950;2023-02-11T04:42:23;99271.53;;;5.10;100.00
27712;BME280;2377;51.734;8.950;2023-02-11T04:44:49;99256.31;;;5.10;100.00
27712;BME280;2377;51.734;8.950;2023-02-11T04:47:16;99254.72;;;5.09;100.00
27712;BME280;2377;51.734;8.950;2023-02-11T04:49:43;99253.38;;;5.15;100.00
27712;BME280;2377;51.734;8.950;2023-02-11T04:52:10;99248.34;;;5.05;100.00
27712;BME280;2377;51.734;8.950;2023-02-11T04:54:37;99239.16;;;5.04;100.00
27712;BME280;2377;51.734;8.950;2023-02-11T04:57:04;99247.91;;;5.09;100.00
27712;BME280;2377;51.734;8.950;2023-02-11T04:59:32;99252.50;;;5.06;100.00
27712;BME280;2377;51.734;8.950;2023-02-11T05:01:59;99242.63;;;5.03;100.00
27712;BME280;2377;51.734;8.950;2023-02-11T05:04:26;99254.31;;;5.14;100.00
27712;BME280;2377;51.734;8.950;2023-02-11T05:06:53;99257.41;;;5.07;100.00
27712;BME280;2377;51.734;8.950;2023-02-11T05:09:20;99255.81;;;5.06;100.00
27712;BME280;2377;51.734;8.950;2023-02-11T05:11:47;99261.00;;;5.05;100.00
27712;BME280;2377;51.734;8.950;2023-02-11T05:14:14;99262.75;;;5.04;100.00
27712;BME280;2377;51.734;8.950;2023-02-11T05:16:42;99254.25;;;4.96;100.00
27712;BME280;2377;51.734;8.950;2023-02-11T05:19:09;99253.16;;;5.08;100.00
27712;BME280;2377;51.734;8.950;2023-02-11T05:21:36;99260.31;;;5.13;100.00
27712;BME280;2377;51.734;8.950;2023-02-11T05:24:04;99263.00;;;5.11;100.00
27712;BME280;2377;51.734;8.950;2023-02-11T05:26:31;99265.81;;;5.08;100.00
27712;BME280;2377;51.734;8.950;2023-02-11T05:28:58;99272.47;;;5.09;100.00
27712;BME280;2377;51.734;8.950;2023-02-11T05:31:25;99260.16;;;5.14;100.00
27712;BME280;2377;51.734;8.950;2023-02-11T05:33:54;99277.91;;;5.14;100.00
27712;BME280;2377;51.734;8.950;2023-02-11T05:36:20;99275.00;;;5.09;100.00
27712;BME280;2377;51.734;8.950;2023-02-11T05:38:47;99255.03;;;5.06;100.00
27712;BME280;2377;51.734;8.950;2023-02-11T05:41:15;99253.53;;;5.13;100.00
27712;BME280;2377;51.734;8.950;2023-02-11T05:43:42;99256.84;;;5.14;100.00
27712;BME280;2377;51.734;8.950;2023-02-11T05:46:09;99259.13;;;5.07;100.00
27712;BME280;2377;51.734;8.950;2023-02-11T05:48:36;99257.28;;;5.09;100.00
27712;BME280;2377;51.734;8.950;2023-02-11T05:51:04;99259.09;;;5.17;100.00
27712;BME280;2377;51.734;8.950;2023-02-11T05:53:31;99257.16;;;5.01;100.00
27712;BME280;2377;51.734;8.950;2023-02-11T05:55:58;99252.88;;;5.11;100.00
27712;BME280;2377;51.734;8.950;2023-02-11T05:58:25;99258.84;;;5.10;100.00
27712;BME280;2377;51.734;8.950;2023-02-11T06:00:52;99269.16;;;5.08;100.00
27712;BME280;2377;51.734;8.950;2023-02-11T06:03:20;99257.13;;;5.11;100.00
27712;BME280;2377;51.734;8.950;2023-02-11T06:05:47;99254.06;;;5.07;100.00
27712;BME280;2377;51.734;8.950;2023-02-11T06:08:15;99261.78;;;5.15;100.00
27712;BME280;2377;51.734;8.950;2023-02-11T06:10:44;99258.06;;;5.09;100.00
27712;BME280;2377;51.734;8.950;2023-02-11T06:13:11;99257.34;;;5.17;100.00
27712;BME280;2377;51.734;8.950;2023-02-11T06:15:38;99250.81;;;5.15;100.00
27712;BME280;2377;51.734;8.950;2023-02-11T06:18:06;99261.13;;;5.13;100.00
27712;BME280;2377;51.734;8.950;2023-02-11T06:20:34;99271.53;;;5.10;100.00
27712;BME280;2377;51.734;8.950;2023-02-11T06:23:02;99262.72;;;5.14;100.00
27712;BME280;2377;51.734;8.950;2023-02-11T06:25:30;99258.72;;;5.12;100.00
27712;BME280;2377;51.734;8.950;2023-02-11T06:27:57;99256.28;;;5.20;100.00
27712;BME280;2377;51.734;8.950;2023-02-11T06:30:24;99265.25;;;5.14;100.00
27712;BME280;2377;51.734;8.950;2023-02-11T06:32:51;99268.72;;;5.13;100.00
27712;BME280;2377;51.734;8.950;2023-02-11T06:35:18;99279.38;;;5.17;100.00
27712;BME280;2377;51.734;8.950;2023-02-11T06:37:45;99283.28;;;5.11;100.00
27712;BME280;2377;51.734;8.950;2023-02-11T06:40:12;99272.56;;;5.17;100.00
27712;BME280;2377;51.734;8.950;2023-02-11T06:42:42;99283.50;;;5.18;100.00
27712;BME280;2377;51.734;8.950;2023-02-11T06:45:09;99277.13;;;5.14;100.00
27712;BME280;2377;51.734;8.950;2023-02-11T06:47:38;99273.38;;;5.18;100.00
27712;BME280;2377;51.734;8.950;2023-02-11T06:50:09;99280.81;;;5.19;100.00
27712;BME280;2377;51.734;8.950;2023-02-11T06:52:37;99285.22;;;5.17;100.00
27712;BME280;2377;51.734;8.950;2023-02-11T06:55:05;99290.47;;;5.16;100.00
27712;BME280;2377;51.734;8.950;2023-02-11T06:57:32;99298.31;;;5.22;100.00
27712;BME280;2377;51.734;8.950;2023-02-11T07:03:31;99310.31;;;5.20;100.00
27712;BME280;2377;51.734;8.950;2023-02-11T07:05:59;99302.19;;;5.17;100.00
27712;BME280;2377;51.734;8.950;2023-02-11T07:08:26;99318.72;;;5.21;100.00
27712;BME280;2377;51.734;8.950;2023-02-11T07:10:53;99314.72;;;5.18;100.00
27712;BME280;2377;51.734;8.950;2023-02-11T07:13:21;99306.16;;;5.19;100.00
27712;BME280;2377;51.734;8.950;2023-02-11T07:15:48;99311.91;;;5.21;100.00
27712;BME280;2377;51.734;8.950;2023-02-11T07:18:15;99323.91;;;5.19;100.00
27712;BME280;2377;51.734;8.950;2023-02-11T07:20:44;99310.97;;;5.22;100.00
27712;BME280;2377;51.734;8.950;2023-02-11T07:23:10;99320.44;;;5.20;100.00
27712;BME280;2377;51.734;8.950;2023-02-11T07:25:37;99318.72;;;5.21;100.00
27712;BME280;2377;51.734;8.950;2023-02-11T07:28:04;99328.59;;;5.14;100.00
27712;BME280;2377;51.734;8.950;2023-02-11T07:30:31;99319.50;;;5.21;100.00
27712;BME280;2377;51.734;8.950;2023-02-11T07:32:59;99315.09;;;5.23;100.00
27712;BME280;2377;51.734;8.950;2023-02-11T07:35:25;99315.47;;;5.28;100.00
27712;BME280;2377;51.734;8.950;2023-02-11T07:38:09;99316.91;;;5.03;100.00
27712;BME280;2377;51.734;8.950;2023-02-11T07:40:40;99323.53;;;5.14;100.00
27712;BME280;2377;51.734;8.950;2023-02-11T07:43:07;99314.44;;;5.21;100.00
27712;BME280;2377;51.734;8.950;2023-02-11T07:45:37;99312.84;;;5.20;100.00
27712;BME280;2377;51.734;8.950;2023-02-11T07:48:05;99317.66;;;5.14;100.00
27712;BME280;2377;51.734;8.950;2023-02-11T07:50:32;99325.41;;;5.12;100.00
27712;BME280;2377;51.734;8.950;2023-02-11T07:52:58;99328.72;;;5.22;100.00
27712;BME280;2377;51.734;8.950;2023-02-11T07:55:27;99335.38;;;5.23;100.00
27712;BME280;2377;51.734;8.950;2023-02-11T07:57:54;99340.16;;;5.26;100.00
27712;BME280;2377;51.734;8.950;2023-02-11T08:00:21;99335.91;;;5.17;100.00
27712;BME280;2377;51.734;8.950;2023-02-11T08:02:48;99341.59;;;5.29;100.00
27712;BME280;2377;51.734;8.950;2023-02-11T08:05:15;99348.59;;;5.27;100.00
27712;BME280;2377;51.734;8.950;2023-02-11T08:07:42;99340.72;;;5.20;100.00
27712;BME280;2377;51.734;8.950;2023-02-11T08:10:09;99338.44;;;5.27;100.00
27712;BME280;2377;51.734;8.950;2023-02-11T08:12:37;99337.13;;;5.23;100.00
27712;BME280;2377;51.734;8.950;2023-02-11T08:15:05;99332.00;;;5.33;100.00
27712;BME280;2377;51.734;8.950;2023-02-11T08:17:34;99333.75;;;5.32;100.00
27712;BME280;2377;51.734;8.950;2023-02-11T08:20:01;99335.75;;;5.28;100.00
27712;BME280;2377;51.734;8.950;2023-02-11T08:22:30;99338.66;;;5.34;100.00
27712;BME280;2377;51.734;8.950;2023-02-11T08:24:58;99340.28;;;5.35;100.00
27712;BME280;2377;51.734;8.950;2023-02-11T08:27:25;99337.34;;;5.29;100.00
27712;BME280;2377;51.734;8.950;2023-02-11T08:29:54;99341.59;;;5.29;100.00
27712;BME280;2377;51.734;8.950;2023-02-11T08:32:21;99348.00;;;5.33;100.00
27712;BME280;2377;51.734;8.950;2023-02-11T08:34:50;99349.88;;;5.31;100.00
27712;BME280;2377;51.734;8.950;2023-02-11T08:37:17;99355.47;;;5.35;100.00
27712;BME280;2377;51.734;8.950;2023-02-11T08:39:45;99356.41;;;5.34;100.00
27712;BME280;2377;51.734;8.950;2023-02-11T08:42:13;99355.19;;;5.38;100.00
27712;BME280;2377;51.734;8.950;2023-02-11T08:44:42;99356.81;;;5.39;100.00
27712;BME280;2377;51.734;8.950;2023-02-11T08:47:11;99366.41;;;5.35;100.00
27712;BME280;2377;51.734;8.950;2023-02-11T08:49:38;99371.47;;;5.35;100.00
27712;BME280;2377;51.734;8.950;2023-02-11T08:52:07;99378.28;;;5.35;100.00
27712;BME280;2377;51.734;8.950;2023-02-11T08:54:34;99375.06;;;5.42;100.00
27712;BME280;2377;51.734;8.950;2023-02-11T08:57:01;99371.44;;;5.45;100.00
27712;BME280;2377;51.734;8.950;2023-02-11T08:59:28;99368.78;;;5.46;100.00
27712;BME280;2377;51.734;8.950;2023-02-11T09:01:55;99382.91;;;5.49;100.00
27712;BME280;2377;51.734;8.950;2023-02-11T09:04:24;99369.28;;;5.50;100.00
27712;BME280;2377;51.734;8.950;2023-02-11T09:06:51;99377.16;;;5.47;100.00
27712;BME280;2377;51.734;8.950;2023-02-11T09:09:17;99373.84;;;5.46;100.00
27712;BME280;2377;51.734;8.950;2023-02-11T09:11:45;99384.50;;;5.50;100.00
27712;BME280;2377;51.734;8.950;2023-02-11T09:14:19;99385.06;;;5.44;100.00
27712;BME280;2377;51.734;8.950;2023-02-11T09:16:47;99383.44;;;5.43;100.00
27712;BME280;2377;51.734;8.950;2023-02-11T09:19:14;99385.44;;;5.49;100.00
27712;BME280;2377;51.734;8.950;2023-02-11T09:21:42;99374.63;;;5.47;100.00
27712;BME280;2377;51.734;8.950;2023-02-11T09:24:10;99369.44;;;5.48;100.00
27712;BME280;2377;51.734;8.950;2023-02-11T09:26:40;99377.53;;;5.52;100.00
27712;BME280;2377;51.734;8.950;2023-02-11T09:29:07;99381.53;;;5.55;100.00
27712;BME280;2377;51.734;8.950;2023-02-11T09:31:34;99378.06;;;5.56;100.00
27712;BME280;2377;51.734;8.950;2023-02-11T09:34:04;99379.41;;;5.50;100.00
27712;BME280;2377;51.734;8.950;2023-02-11T09:36:34;99372.47;;;5.52;100.00
27712;BME280;2377;51.734;8.950;2023-02-11T09:39:08;99387.16;;;5.58;100.00
27712;BME280;2377;51.734;8.950;2023-02-11T09:42:09;99391.56;;;5.56;100.00
27712;BME280;2377;51.734;8.950;2023-02-11T09:44:38;99392.72;;;5.62;100.00
27712;BME280;2377;51.734;8.950;2023-02-11T09:47:20;99391.94;;;5.61;100.00
27712;BME280;2377;51.734;8.950;2023-02-11T09:49:52;99401.41;;;5.59;100.00
27712;BME280;2377;51.734;8.950;2023-02-11T09:52:33;99407.38;;;5.68;100.00
27712;BME280;2377;51.734;8.950;2023-02-11T09:55:14;99403.09;;;5.68;100.00
27712;BME280;2377;51.734;8.950;2023-02-11T09:57:43;99404.44;;;5.72;100.00
27712;BME280;2377;51.734;8.950;2023-02-11T10:00:19;99401.22;;;5.70;100.00
27712;BME280;2377;51.734;8.950;2023-02-11T10:03:07;99399.78;;;5.68;100.00
27712;BME280;2377;51.734;8.950;2023-02-11T10:06:00;99405.50;;;5.70;100.00
27712;BME280;2377;51.734;8.950;2023-02-11T10:08:46;99402.59;;;5.65;100.00
27712;BME280;2377;51.734;8.950;2023-02-11T10:11:25;99403.94;;;5.59;100.00
27712;BME280;2377;51.734;8.950;2023-02-11T10:14:09;99409.91;;;5.68;100.00
27712;BME280;2377;51.734;8.950;2023-02-11T10:16:58;99418.06;;;5.71;100.00
27712;BME280;2377;51.734;8.950;2023-02-11T10:19:51;99418.84;;;5.72;100.00
27712;BME280;2377;51.734;8.950;2023-02-11T10:22:31;99417.78;;;5.75;100.00
27712;BME280;2377;51.734;8.950;2023-02-11T10:25:17;99419.88;;;5.79;100.00
27712;BME280;2377;51.734;8.950;2023-02-11T10:27:49;99430.41;;;5.84;100.00
27712;BME280;2377;51.734;8.950;2023-02-11T10:30:25;99419.88;;;5.79;100.00
27712;BME280;2377;51.734;8.950;2023-02-11T10:32:59;99426.28;;;5.83;100.00
27712;BME280;2377;51.734;8.950;2023-02-11T10:35:28;99433.47;;;5.88;100.00
27712;BME280;2377;51.734;8.950;2023-02-11T10:37:58;99435.56;;;5.92;100.00
27712;BME280;2377;51.734;8.950;2023-02-11T10:40:29;99427.44;;;5.89;100.00
27712;BME280;2377;51.734;8.950;2023-02-11T10:43:01;99423.81;;;5.91;100.00
27712;BME280;2377;51.734;8.950;2023-02-11T10:45:33;99432.53;;;5.89;100.00
27712;BME280;2377;51.734;8.950;2023-02-11T10:48:04;99431.72;;;5.88;100.00
27712;BME280;2377;51.734;8.950;2023-02-11T10:50:33;99429.84;;;5.90;100.00
27712;BME280;2377;51.734;8.950;2023-02-11T10:53:16;99427.34;;;5.81;100.00
27712;BME280;2377;51.734;8.950;2023-02-11T10:55:51;99431.44;;;5.91;100.00
27712;BME280;2377;51.734;8.950;2023-02-11T10:58:27;99440.53;;;5.94;100.00
27712;BME280;2377;51.734;8.950;2023-02-11T11:00:58;99436.25;;;5.95;100.00
27712;BME280;2377;51.734;8.950;2023-02-11T11:03:28;99432.63;;;5.97;100.00
27712;BME280;2377;51.734;8.950;2023-02-11T11:06:00;99435.56;;;6.02;100.00
27712;BME280;2377;51.734;8.950;2023-02-11T11:08:42;99432.09;;;5.93;100.00
27712;BME280;2377;51.734;8.950;2023-02-11T11:11:12;99440.13;;;5.89;100.00
27712;BME280;2377;51.734;8.950;2023-02-11T11:13:56;99443.59;;;5.98;100.00
27712;BME280;2377;51.734;8.950;2023-02-11T11:16:26;99445.56;;;6.04;100.00
27712;BME280;2377;51.734;8.950;2023-02-11T11:19:18;99445.06;;;6.00;100.00
27712;BME280;2377;51.734;8.950;2023-02-11T11:21:49;99447.00;;;6.06;100.00
27712;BME280;2377;51.734;8.950;2023-02-11T11:24:21;99448.63;;;6.07;100.00
27712;BME280;2377;51.734;8.950;2023-02-11T11:26:53;99444.34;;;6.08;100.00
27712;BME280;2377;51.734;8.950;2023-02-11T11:29:28;99445.13;;;6.08;100.00
27712;BME280;2377;51.734;8.950;2023-02-11T11:32:02;99441.38;;;6.12;100.00
27712;BME280;2377;51.734;8.950;2023-02-11T11:34:34;99446.16;;;6.16;100.00
27712;BME280;2377;51.734;8.950;2023-02-11T11:37:10;99437.63;;;6.17;100.00
27712;BME280;2377;51.734;8.950;2023-02-11T11:39:38;99432.53;;;6.17;100.00
27712;BME280;2377;51.734;8.950;2023-02-11T11:42:25;99444.28;;;6.18;100.00
27712;BME280;2377;51.734;8.950;2023-02-11T11:45:00;99444.56;;;6.14;100.00
27712;BME280;2377;51.734;8.950;2023-02-11T11:47:35;99443.34;;;6.19;100.00
27712;BME280;2377;51.734;8.950;2023-02-11T11:50:25;99447.78;;;6.17;100.00
27712;BME280;2377;51.734;8.950;2023-02-11T11:52:59;99447.47;;;6.20;100.00
27712;BME280;2377;51.734;8.950;2023-02-11T11:55:36;99442.69;;;6.17;100.00
27712;BME280;2377;51.734;8.950;2023-02-11T11:58:13;99444.66;;;6.23;100.00
27712;BME280;2377;51.734;8.950;2023-02-11T12:00:57;99427.16;;;6.20;100.00
27712;BME280;2377;51.734;8.950;2023-02-11T12:04:15;99429.19;;;6.16;100.00
27712;BME280;2377;51.734;8.950;2023-02-11T12:07:01;99427.09;;;6.11;100.00
27712;BME280;2377;51.734;8.950;2023-02-11T12:09:44;99432.78;;;6.23;100.00
27712;BME280;2377;51.734;8.950;2023-02-11T12:12:33;99435.44;;;6.22;100.00
27712;BME280;2377;51.734;8.950;2023-02-11T12:15:29;99435.16;;;6.25;100.00
27712;BME280;2377;51.734;8.950;2023-02-11T12:18:19;99436.09;;;6.24;100.00
27712;BME280;2377;51.734;8.950;2023-02-11T12:21:11;99430.38;;;6.22;100.00
27712;BME280;2377;51.734;8.950;2023-02-11T12:24:00;99438.78;;;6.22;100.00
27712;BME280;2377;51.734;8.950;2023-02-11T12:26:39;99438.34;;;6.27;100.00
27712;BME280;2377;51.734;8.950;2023-02-11T12:29:25;99438.34;;;6.27;100.00
27712;BME280;2377;51.734;8.950;2023-02-11T12:32:09;99444.09;;;6.29;100.00
27712;BME280;2377;51.734;8.950;2023-02-11T12:38:24;99445.59;;;6.22;100.00
27712;BME280;2377;51.734;8.950;2023-02-11T12:41:16;99452.91;;;6.25;100.00
27712;BME280;2377;51.734;8.950;2023-02-11T12:44:17;99438.06;;;6.30;100.00
27712;BME280;2377;51.734;8.950;2023-02-11T12:46:53;99435.25;;;6.33;100.00
27712;BME280;2377;51.734;8.950;2023-02-11T12:49:49;99444.16;;;6.37;100.00
27712;BME280;2377;51.734;8.950;2023-02-11T12:55:21;99445.47;;;6.41;100.00
27712;BME280;2377;51.734;8.950;2023-02-11T12:57:51;99442.28;;;6.39;100.00
27712;BME280;2377;51.734;8.950;2023-02-11T13:00:22;99440.63;;;6.48;100.00
27712;BME280;2377;51.734;8.950;2023-02-11T13:02:58;99447.44;;;6.47;100.00
27712;BME280;2377;51.734;8.950;2023-02-11T13:05:37;99443.28;;;6.46;100.00
27712;BME280;2377;51.734;8.950;2023-02-11T13:08:10;99435.41;;;6.49;100.00
27712;BME280;2377;51.734;8.950;2023-02-11T13:10:44;99442.72;;;6.52;100.00
27712;BME280;2377;51.734;8.950;2023-02-11T13:13:18;99441.13;;;6.51;100.00
27712;BME280;2377;51.734;8.950;2023-02-11T13:15:52;99435.75;;;6.54;100.00
27712;BME280;2377;51.734;8.950;2023-02-11T13:18:41;99441.94;;;6.52;100.00
27712;BME280;2377;51.734;8.950;2023-02-11T13:21:35;99447.66;;;6.54;100.00
27712;BME280;2377;51.734;8.950;2023-02-11T13:24:17;99447.50;;;6.55;100.00
27712;BME280;2377;51.734;8.950;2023-02-11T13:26:58;99448.47;;;6.54;100.00
27712;BME280;2377;51.734;8.950;2023-02-11T13:29:58;99449.25;;;6.55;100.00
27712;BME280;2377;51.734;8.950;2023-02-11T13:33:16;99444.59;;;6.50;100.00
27712;BME280;2377;51.734;8.950;2023-02-11T13:35:49;99433.88;;;6.56;100.00
27712;BME280;2377;51.734;8.950;2023-02-11T13:38:36;99441.19;;;6.60;100.00
27712;BME280;2377;51.734;8.950;2023-02-11T13:41:15;99433.56;;;6.60;100.00
27712;BME280;2377;51.734;8.950;2023-02-11T13:43:43;99445.63;;;6.57;100.00
27712;BME280;2377;51.734;8.950;2023-02-11T13:46:12;99440.75;;;6.46;100.00
27712;BME280;2377;51.734;8.950;2023-02-11T13:48:49;99447.00;;;6.52;100.00
27712;BME280;2377;51.734;8.950;2023-02-11T13:51:36;99437.84;;;6.59;100.00
27712;BME280;2377;51.734;8.950;2023-02-11T13:54:04;99439.97;;;6.64;100.00
27712;BME280;2377;51.734;8.950;2023-02-11T13:56:36;99433.88;;;6.56;100.00